sensor_id;sensor_type;location;lat;lon;timestamp;P1;durP1;ratioP1;P2;durP2;ratioP2
1370;SDS011;14306;49.942;11.570;2023-02-28T00:01:26;4.13;;;3.38;;
1370;SDS011;14306;49.942;11.570;2023-02-28T00:03:55;7.60;;;3.70;;
1370;SDS011;14306;49.942;11.570;2023-02-28T00:06:23;6.70;;;3.70;;
1370;SDS011;14306;49.942;11.570;2023-02-28T00:08:53;5.63;;;3.85;;
1370;SDS011;14306;49.942;11.570;2023-02-28T00:11:22;7.47;;;4.38;;
1370;SDS011;14306;49.942;11.570;2023-02-28T00:13:50;7.13;;;4.70;;
1370;SDS011;14306;49.942;11.570;2023-02-28T00:16:19;5.88;;;4.05;;
1370;SDS011;14306;49.942;11.570;2023-02-28T00:18:48;7.32;;;4.40;;
1370;SDS011;14306;49.942;11.570;2023-02-28T00:21:17;5.97;;;4.00;;
1370;SDS011;14306;49.942;11.570;2023-02-28T00:23:47;6.30;;;4.20;;
1370;SDS011;14306;49.942;11.570;2023-02-28T00:26:16;5.45;;;4.30;;
1370;SDS011;14306;49.942;11.570;2023-02-28T00:28:47;5.43;;;4.80;;
1370;SDS011;14306;49.942;11.570;2023-02-28T00:31:15;6.20;;;3.70;;
1370;SDS011;14306;49.942;11.570;2023-02-28T00:33:44;9.48;;;4.65;;
1370;SDS011;14306;49.942;11.570;2023-02-28T00:36:12;5.40;;;4.38;;
1370;SDS011;14306;49.942;11.570;2023-02-28T00:38:40;5.30;;;4.50;;
1370;SDS011;14306;49.942;11.570;2023-02-28T00:41:08;8.05;;;4.75;;
1370;SDS011;14306;49.942;11.570;2023-02-28T00:43:38;7.95;;;4.57;;
1370;SDS011;14306;49.942;11.570;2023-02-28T00:46:07;6.60;;;4.70;;
1370;SDS011;14306;49.942;11.570;2023-02-28T00:48:36;6.50;;;4.45;;
1370;SDS011;14306;49.942;11.570;2023-02-28T00:51:04;8.02;;;4.40;;
1370;SDS011;14306;49.942;11.570;2023-02-28T00:53:33;6.82;;;4.13;;
1370;SDS011;14306;49.942;11.570;2023-02-28T00:56:01;5.55;;;4.85;;
1370;SDS011;14306;49.942;11.570;2023-02-28T00:58:30;10.70;;;4.45;;
1370;SDS011;14306;49.942;11.570;2023-02-28T01:01:00;8.48;;;5.22;;
1370;SDS011;14306;49.942;11.570;2023-02-28T01:03:28;8.40;;;5.20;;
1370;SDS011;14306;49.942;11.570;2023-02-28T01:05:57;5.18;;;3.83;;
1370;SDS011;14306;49.942;11.570;2023-02-28T01:08:25;8.90;;;4.97;;
1370;SDS011;14306;49.942;11.570;2023-02-28T01:10:53;7.13;;;4.82;;
1370;SDS011;14306;49.942;11.570;2023-02-28T01:13:22;11.32;;;4.80;;
1370;SDS011;14306;49.942;11.570;2023-02-28T01:15:52;7.45;;;5.07;;
1370;SDS011;14306;49.942;11.570;2023-02-28T01:18:24;7.00;;;4.75;;
1370;SDS011;14306;49.942;11.570;2023-02-28T01:20:53;8.80;;;4.47;;
1370;SDS011;14306;49.942;11.570;2023-02-28T01:23:23;6.20;;;4.05;;
1370;SDS011;14306;49.942;11.570;2023-02-28T01:25:52;5.63;;;4.20;;
1370;SDS011;14306;49.942;11.570;2023-02-28T01:28:20;5.88;;;4.55;;
1370;SDS011;14306;49.942;11.570;2023-02-28T01:30:49;8.07;;;5.07;;
1370;SDS011;14306;49.942;11.570;2023-02-28T01:33:18;4.95;;;4.05;;
1370;SDS011;14306;49.942;11.570;2023-02-28T01:35:48;6.15;;;4.40;;
1370;SDS011;14306;49.942;11.570;2023-02-28T01:38:16;5.93;;;4.20;;
1370;SDS011;14306;49.942;11.570;2023-02-28T01:40:49;5.85;;;4.07;;
1370;SDS011;14306;49.942;11.570;2023-02-28T01:43:20;4.57;;;3.72;;
1370;SDS011;14306;49.942;11.570;2023-02-28T01:45:50;9.85;;;6.05;;
1370;SDS011;14306;49.942;11.570;2023-02-28T01:48:20;6.85;;;3.97;;
1370;SDS011;14306;49.942;11.570;2023-02-28T01:50:53;7.03;;;4.60;;
1370;SDS011;14306;49.942;11.570;2023-02-28T01:53:28;5.97;;;4.30;;
1370;SDS011;14306;49.942;11.570;2023-02-28T01:56:00;5.75;;;4.22;;
1370;SDS011;14306;49.942;11.570;2023-02-28T01:58:31;10.45;;;5.13;;
1370;SDS011;14306;49.942;11.570;2023-02-28T02:00:59;9.00;;;4.88;;
1370;SDS011;14306;49.942;11.570;2023-02-28T02:03:29;7.55;;;4.28;;
1370;SDS011;14306;49.942;11.570;2023-02-28T02:06:00;6.90;;;5.10;;
1370;SDS011;14306;49.942;11.570;2023-02-28T02:08:29;11.15;;;5.43;;
1370;SDS011;14306;49.942;11.570;2023-02-28T02:10:59;8.57;;;5.65;;
1370;SDS011;14306;49.942;11.570;2023-02-28T02:13:32;7.47;;;5.50;;
1370;SDS011;14306;49.942;11.570;2023-02-28T02:16:11;8.45;;;5.45;;
1370;SDS011;14306;49.942;11.570;2023-02-28T02:18:52;6.75;;;4.53;;
1370;SDS011;14306;49.942;11.570;2023-02-28T02:21:44;9.50;;;6.13;;
1370;SDS011;14306;49.942;11.570;2023-02-28T02:24:28;10.40;;;5.80;;
1370;SDS011;14306;49.942;11.570;2023-02-28T02:27:20;9.57;;;6.15;;
1370;SDS011;14306;49.942;11.570;2023-02-28T02:33:02;9.32;;;6.05;;
1370;SDS011;14306;49.942;11.570;2023-02-28T02:35:41;7.70;;;6.30;;
1370;SDS011;14306;49.942;11.570;2023-02-28T02:38:18;8.27;;;5.78;;
1370;SDS011;14306;49.942;11.570;2023-02-28T02:40:54;10.45;;;6.57;;
1370;SDS011;14306;49.942;11.570;2023-02-28T02:43:26;12.45;;;5.93;;
1370;SDS011;14306;49.942;11.570;2023-02-28T02:46:02;9.63;;;6.07;;
1370;SDS011;14306;49.942;11.570;2023-02-28T02:48:34;9.70;;;6.20;;
1370;SDS011;14306;49.942;11.570;2023-02-28T02:51:09;7.13;;;6.10;;
1370;SDS011;14306;49.942;11.570;2023-02-28T02:53:40;6.45;;;5.05;;
1370;SDS011;14306;49.942;11.570;2023-02-28T02:56:13;9.20;;;5.32;;
1370;SDS011;14306;49.942;11.570;2023-02-28T02:58:43;11.32;;;6.50;;
1370;SDS011;14306;49.942;11.570;2023-02-28T03:01:14;8.40;;;5.50;;
1370;SDS011;14306;49.942;11.570;2023-02-28T03:03:55;7.97;;;4.72;;
1370;SDS011;14306;49.942;11.570;2023-02-28T03:06:26;6.00;;;5.40;;
1370;SDS011;14306;49.942;11.570;2023-02-28T03:08:55;7.38;;;4.38;;
1370;SDS011;14306;49.942;11.570;2023-02-28T03:11:23;9.63;;;5.25;;
1370;SDS011;14306;49.942;11.570;2023-02-28T03:13:55;9.00;;;6.40;;
1370;SDS011;14306;49.942;11.570;2023-02-28T03:16:45;10.07;;;5.82;;
1370;SDS011;14306;49.942;11.570;2023-02-28T03:19:29;10.90;;;5.72;;
1370;SDS011;14306;49.942;11.570;2023-02-28T03:22:21;8.57;;;4.90;;
1370;SDS011;14306;49.942;11.570;2023-02-28T03:25:00;13.55;;;5.50;;
1370;SDS011;14306;49.942;11.570;2023-02-28T03:27:36;10.52;;;6.50;;
1370;SDS011;14306;49.942;11.570;2023-02-28T03:30:10;8.75;;;6.50;;
1370;SDS011;14306;49.942;11.570;2023-02-28T03:32:44;9.75;;;6.95;;
1370;SDS011;14306;49.942;11.570;2023-02-28T03:35:22;10.05;;;6.15;;
1370;SDS011;14306;49.942;11.570;2023-02-28T03:37:56;8.98;;;5.43;;
1370;SDS011;14306;49.942;11.570;2023-02-28T03:40:32;9.57;;;6.22;;
1370;SDS011;14306;49.942;11.570;2023-02-28T03:43:03;11.10;;;6.60;;
1370;SDS011;14306;49.942;11.570;2023-02-28T03:45:40;13.13;;;6.55;;
1370;SDS011;14306;49.942;11.570;2023-02-28T03:48:12;11.75;;;7.07;;
1370;SDS011;14306;49.942;11.570;2023-02-28T03:50:44;12.50;;;6.15;;
1370;SDS011;14306;49.942;11.570;2023-02-28T03:53:18;10.55;;;6.18;;
1370;SDS011;14306;49.942;11.570;2023-02-28T03:55:52;9.95;;;6.13;;
1370;SDS011;14306;49.942;11.570;2023-02-28T03:58:26;10.05;;;5.90;;
1370;SDS011;14306;49.942;11.570;2023-02-28T04:00:58;9.27;;;6.07;;
1370;SDS011;14306;49.942;11.570;2023-02-28T04:03:35;11.40;;;6.32;;
1370;SDS011;14306;49.942;11.570;2023-02-28T04:06:05;9.23;;;6.50;;
1370;SDS011;14306;49.942;11.570;2023-02-28T04:08:42;8.15;;;6.20;;
1370;SDS011;14306;49.942;11.570;2023-02-28T04:11:14;13.07;;;6.93;;
1370;SDS011;14306;49.942;11.570;2023-02-28T04:13:47;14.68;;;7.68;;
1370;SDS011;14306;49.942;11.570;2023-02-28T04:16:16;12.35;;;7.05;;
1370;SDS011;14306;49.942;11.570;2023-02-28T04:19:00;12.18;;;7.30;;
1370;SDS011;14306;49.942;11.570;2023-02-28T04:21:31;14.25;;;8.55;;
1370;SDS011;14306;49.942;11.570;2023-02-28T04:24:01;14.10;;;7.63;;
1370;SDS011;14306;49.942;11.570;2023-02-28T04:26:30;14.40;;;8.15;;
1370;SDS011;14306;49.942;11.570;2023-02-28T04:28:59;13.43;;;8.95;;
1370;SDS011;14306;49.942;11.570;2023-02-28T04:31:29;15.15;;;8.30;;
1370;SDS011;14306;49.942;11.570;2023-02-28T04:34:00;12.68;;;8.00;;
1370;SDS011;14306;49.942;11.570;2023-02-28T04:36:29;13.25;;;8.23;;
1370;SDS011;14306;49.942;11.570;2023-02-28T04:38:57;16.80;;;8.38;;
1370;SDS011;14306;49.942;11.570;2023-02-28T04:41:27;16.70;;;10.55;;
1370;SDS011;14306;49.942;11.570;2023-02-28T04:43:58;16.65;;;8.90;;
1370;SDS011;14306;49.942;11.570;2023-02-28T04:46:26;14.02;;;7.90;;
1370;SDS011;14306;49.942;11.570;2023-02-28T04:48:54;10.85;;;6.90;;
1370;SDS011;14306;49.942;11.570;2023-02-28T04:51:22;14.02;;;7.20;;
1370;SDS011;14306;49.942;11.570;2023-02-28T04:53:50;11.05;;;7.25;;
1370;SDS011;14306;49.942;11.570;2023-02-28T04:56:19;13.32;;;7.75;;
1370;SDS011;14306;49.942;11.570;2023-02-28T04:58:49;11.32;;;7.60;;
1370;SDS011;14306;49.942;11.570;2023-02-28T05:01:21;8.85;;;6.75;;
1370;SDS011;14306;49.942;11.570;2023-02-28T05:03:52;11.27;;;7.53;;
1370;SDS011;14306;49.942;11.570;2023-02-28T05:06:21;12.52;;;7.65;;
1370;SDS011;14306;49.942;11.570;2023-02-28T05:08:53;11.65;;;7.20;;
1370;SDS011;14306;49.942;11.570;2023-02-28T05:11:23;11.10;;;6.80;;
1370;SDS011;14306;49.942;11.570;2023-02-28T05:13:55;11.63;;;7.25;;
1370;SDS011;14306;49.942;11.570;2023-02-28T05:16:23;12.45;;;7.70;;
1370;SDS011;14306;49.942;11.570;2023-02-28T05:18:51;15.38;;;7.40;;
1370;SDS011;14306;49.942;11.570;2023-02-28T05:21:23;13.20;;;8.25;;
1370;SDS011;14306;49.942;11.570;2023-02-28T05:23:54;12.70;;;7.22;;
1370;SDS011;14306;49.942;11.570;2023-02-28T05:26:24;13.45;;;7.97;;
1370;SDS011;14306;49.942;11.570;2023-02-28T05:28:55;10.57;;;7.15;;
1370;SDS011;14306;49.942;11.570;2023-02-28T05:31:24;11.02;;;6.65;;
1370;SDS011;14306;49.942;11.570;2023-02-28T05:33:53;11.77;;;7.63;;
1370;SDS011;14306;49.942;11.570;2023-02-28T05:36:21;11.93;;;7.40;;
1370;SDS011;14306;49.942;11.570;2023-02-28T05:38:50;9.95;;;7.28;;
1370;SDS011;14306;49.942;11.570;2023-02-28T05:41:19;11.07;;;7.57;;
1370;SDS011;14306;49.942;11.570;2023-02-28T05:43:47;11.70;;;6.70;;
1370;SDS011;14306;49.942;11.570;2023-02-28T05:46:18;12.05;;;8.10;;
1370;SDS011;14306;49.942;11.570;2023-02-28T05:48:46;12.90;;;7.85;;
1370;SDS011;14306;49.942;11.570;2023-02-28T05:51:16;12.88;;;8.00;;
1370;SDS011;14306;49.942;11.570;2023-02-28T05:53:45;13.82;;;8.40;;
1370;SDS011;14306;49.942;11.570;2023-02-28T05:56:14;11.90;;;7.63;;
1370;SDS011;14306;49.942;11.570;2023-02-28T05:58:43;12.50;;;6.65;;
1370;SDS011;14306;49.942;11.570;2023-02-28T06:01:23;12.30;;;8.15;;
1370;SDS011;14306;49.942;11.570;2023-02-28T06:04:02;11.35;;;7.75;;
1370;SDS011;14306;49.942;11.570;2023-02-28T06:06:35;13.80;;;8.50;;
1370;SDS011;14306;49.942;11.570;2023-02-28T06:09:04;14.13;;;7.75;;
1370;SDS011;14306;49.942;11.570;2023-02-28T06:11:33;12.13;;;7.93;;
1370;SDS011;14306;49.942;11.570;2023-02-28T06:14:02;15.13;;;8.07;;
1370;SDS011;14306;49.942;11.570;2023-02-28T06:16:33;16.80;;;9.13;;
1370;SDS011;14306;49.942;11.570;2023-02-28T06:19:03;38.15;;;19.92;;
1370;SDS011;14306;49.942;11.570;2023-02-28T06:21:32;36.00;;;19.75;;
1370;SDS011;14306;49.942;11.570;2023-02-28T06:24:00;21.60;;;11.35;;
1370;SDS011;14306;49.942;11.570;2023-02-28T06:26:30;25.45;;;15.10;;
1370;SDS011;14306;49.942;11.570;2023-02-28T06:28:59;15.15;;;8.70;;
1370;SDS011;14306;49.942;11.570;2023-02-28T06:31:28;91.70;;;36.22;;
1370;SDS011;14306;49.942;11.570;2023-02-28T06:34:00;41.03;;;17.70;;
1370;SDS011;14306;49.942;11.570;2023-02-28T06:36:29;12.88;;;8.38;;
1370;SDS011;14306;49.942;11.570;2023-02-28T06:38:58;18.05;;;9.65;;
1370;SDS011;14306;49.942;11.570;2023-02-28T06:41:26;14.30;;;9.10;;
1370;SDS011;14306;49.942;11.570;2023-02-28T06:44:10;14.45;;;8.93;;
1370;SDS011;14306;49.942;11.570;2023-02-28T06:46:40;22.20;;;10.00;;
1370;SDS011;14306;49.942;11.570;2023-02-28T06:49:11;16.05;;;8.65;;
1370;SDS011;14306;49.942;11.570;2023-02-28T06:51:42;19.55;;;9.70;;
1370;SDS011;14306;49.942;11.570;2023-02-28T06:54:12;12.13;;;8.38;;
1370;SDS011;14306;49.942;11.570;2023-02-28T06:56:41;17.88;;;9.50;;
1370;SDS011;14306;49.942;11.570;2023-02-28T06:59:09;15.65;;;8.80;;
1370;SDS011;14306;49.942;11.570;2023-02-28T07:01:38;17.65;;;8.75;;
1370;SDS011;14306;49.942;11.570;2023-02-28T07:04:07;13.02;;;8.18;;
1370;SDS011;14306;49.942;11.570;2023-02-28T07:06:37;17.88;;;9.48;;
1370;SDS011;14306;49.942;11.570;2023-02-28T07:09:06;15.30;;;7.78;;
1370;SDS011;14306;49.942;11.570;2023-02-28T07:11:36;12.95;;;8.05;;
1370;SDS011;14306;49.942;11.570;2023-02-28T07:14:04;15.95;;;8.35;;
1370;SDS011;14306;49.942;11.570;2023-02-28T07:16:33;14.45;;;9.30;;
1370;SDS011;14306;49.942;11.570;2023-02-28T07:19:02;12.93;;;9.52;;
1370;SDS011;14306;49.942;11.570;2023-02-28T07:21:31;12.85;;;8.75;;
1370;SDS011;14306;49.942;11.570;2023-02-28T07:24:01;18.98;;;8.95;;
1370;SDS011;14306;49.942;11.570;2023-02-28T07:26:30;13.38;;;8.38;;
1370;SDS011;14306;49.942;11.570;2023-02-28T07:29:00;26.08;;;8.48;;
1370;SDS011;14306;49.942;11.570;2023-02-28T07:31:29;16.95;;;8.82;;
1370;SDS011;14306;49.942;11.570;2023-02-28T07:33:59;25.27;;;11.25;;
1370;SDS011;14306;49.942;11.570;2023-02-28T07:36:27;16.48;;;8.32;;
1370;SDS011;14306;49.942;11.570;2023-02-28T07:38:56;14.68;;;8.10;;
1370;SDS011;14306;49.942;11.570;2023-02-28T07:41:28;12.97;;;7.90;;
1370;SDS011;14306;49.942;11.570;2023-02-28T07:43:57;22.75;;;8.30;;
1370;SDS011;14306;49.942;11.570;2023-02-28T07:46:26;19.30;;;9.50;;
1370;SDS011;14306;49.942;11.570;2023-02-28T07:48:56;14.65;;;7.93;;
1370;SDS011;14306;49.942;11.570;2023-02-28T07:51:27;12.90;;;8.18;;
1370;SDS011;14306;49.942;11.570;2023-02-28T07:53:55;18.43;;;9.20;;
1370;SDS011;14306;49.942;11.570;2023-02-28T07:56:24;14.50;;;9.30;;
1370;SDS011;14306;49.942;11.570;2023-02-28T07:58:55;14.10;;;8.27;;
1370;SDS011;14306;49.942;11.570;2023-02-28T08:01:23;16.53;;;9.33;;
1370;SDS011;14306;49.942;11.570;2023-02-28T08:03:52;14.63;;;9.00;;
1370;SDS011;14306;49.942;11.570;2023-02-28T08:06:22;12.97;;;8.00;;
1370;SDS011;14306;49.942;11.570;2023-02-28T08:08:51;22.27;;;9.30;;
1370;SDS011;14306;49.942;11.570;2023-02-28T08:11:24;11.97;;;8.40;;
1370;SDS011;14306;49.942;11.570;2023-02-28T08:13:54;17.33;;;8.70;;
1370;SDS011;14306;49.942;11.570;2023-02-28T08:16:23;12.70;;;7.57;;
1370;SDS011;14306;49.942;11.570;2023-02-28T08:18:52;17.23;;;7.80;;
1370;SDS011;14306;49.942;11.570;2023-02-28T08:21:21;18.80;;;8.23;;
1370;SDS011;14306;49.942;11.570;2023-02-28T08:23:50;13.50;;;7.73;;
1370;SDS011;14306;49.942;11.570;2023-02-28T08:26:20;12.80;;;7.70;;
1370;SDS011;14306;49.942;11.570;2023-02-28T08:28:48;14.70;;;8.73;;
1370;SDS011;14306;49.942;11.570;2023-02-28T08:31:19;13.67;;;8.00;;
1370;SDS011;14306;49.942;11.570;2023-02-28T08:33:49;10.80;;;6.83;;
1370;SDS011;14306;49.942;11.570;2023-02-28T08:36:20;9.57;;;6.47;;
1370;SDS011;14306;49.942;11.570;2023-02-28T08:38:48;7.50;;;6.60;;
1370;SDS011;14306;49.942;11.570;2023-02-28T08:41:17;6.83;;;5.50;;
1370;SDS011;14306;49.942;11.570;2023-02-28T08:43:46;11.63;;;6.57;;
1370;SDS011;14306;49.942;11.570;2023-02-28T08:46:15;11.33;;;5.80;;
1370;SDS011;14306;49.942;11.570;2023-02-28T08:48:45;18.33;;;6.57;;
1370;SDS011;14306;49.942;11.570;2023-02-28T08:51:14;7.97;;;6.30;;
1370;SDS011;14306;49.942;11.570;2023-02-28T08:53:48;9.33;;;6.20;;
1370;SDS011;14306;49.942;11.570;2023-02-28T08:56:18;8.57;;;5.80;;
1370;SDS011;14306;49.942;11.570;2023-02-28T08:58:47;6.80;;;4.87;;
1370;SDS011;14306;49.942;11.570;2023-02-28T09:01:18;12.80;;;5.43;;
1370;SDS011;14306;49.942;11.570;2023-02-28T09:03:50;10.67;;;5.53;;
1370;SDS011;14306;49.942;11.570;2023-02-28T09:06:21;12.97;;;5.97;;
1370;SDS011;14306;49.942;11.570;2023-02-28T09:08:50;14.50;;;5.77;;
1370;SDS011;14306;49.942;11.570;2023-02-28T09:11:19;8.50;;;5.73;;
1370;SDS011;14306;49.942;11.570;2023-02-28T09:13:49;11.20;;;7.57;;
1370;SDS011;14306;49.942;11.570;2023-02-28T09:16:18;9.13;;;6.50;;
1370;SDS011;14306;49.942;11.570;2023-02-28T09:18:47;9.77;;;5.60;;
1370;SDS011;14306;49.942;11.570;2023-02-28T09:21:18;9.17;;;5.87;;
1370;SDS011;14306;49.942;11.570;2023-02-28T09:23:48;12.83;;;6.90;;
1370;SDS011;14306;49.942;11.570;2023-02-28T09:26:20;11.63;;;6.00;;
1370;SDS011;14306;49.942;11.570;2023-02-28T09:28:51;11.30;;;6.67;;
1370;SDS011;14306;49.942;11.570;2023-02-28T09:31:21;13.70;;;7.20;;
1370;SDS011;14306;49.942;11.570;2023-02-28T09:33:53;10.13;;;5.70;;
1370;SDS011;14306;49.942;11.570;2023-02-28T09:36:25;8.87;;;5.20;;
1370;SDS011;14306;49.942;11.570;2023-02-28T09:39:09;9.27;;;6.70;;
1370;SDS011;14306;49.942;11.570;2023-02-28T09:41:39;13.27;;;6.80;;
1370;SDS011;14306;49.942;11.570;2023-02-28T09:44:16;13.13;;;6.27;;
1370;SDS011;14306;49.942;11.570;2023-02-28T09:46:51;7.60;;;6.00;;
1370;SDS011;14306;49.942;11.570;2023-02-28T09:49:28;9.63;;;5.60;;
1370;SDS011;14306;49.942;11.570;2023-02-28T09:52:08;9.53;;;5.80;;
1370;SDS011;14306;49.942;11.570;2023-02-28T09:54:39;12.67;;;6.80;;
1370;SDS011;14306;49.942;11.570;2023-02-28T09:57:08;11.13;;;7.80;;
1370;SDS011;14306;49.942;11.570;2023-02-28T09:59:49;11.17;;;7.30;;
1370;SDS011;14306;49.942;11.570;2023-02-28T10:02:40;12.53;;;6.20;;
1370;SDS011;14306;49.942;11.570;2023-02-28T10:05:27;8.20;;;5.80;;
1370;SDS011;14306;49.942;11.570;2023-02-28T10:08:03;9.90;;;5.70;;
1370;SDS011;14306;49.942;11.570;2023-02-28T10:10:39;10.40;;;5.57;;
1370;SDS011;14306;49.942;11.570;2023-02-28T10:13:14;10.73;;;5.73;;
1370;SDS011;14306;49.942;11.570;2023-02-28T10:15:49;11.37;;;6.80;;
1370;SDS011;14306;49.942;11.570;2023-02-28T10:18:23;8.80;;;5.90;;
1370;SDS011;14306;49.942;11.570;2023-02-28T10:20:58;8.17;;;6.40;;
1370;SDS011;14306;49.942;11.570;2023-02-28T10:23:31;11.83;;;6.70;;
1370;SDS011;14306;49.942;11.570;2023-02-28T10:26:05;9.70;;;5.90;;
1370;SDS011;14306;49.942;11.570;2023-02-28T10:28:42;10.20;;;6.30;;
1370;SDS011;14306;49.942;11.570;2023-02-28T10:33:45;8.70;;;6.20;;
1370;SDS011;14306;49.942;11.570;2023-02-28T10:36:16;7.10;;;5.03;;
1370;SDS011;14306;49.942;11.570;2023-02-28T10:38:48;6.57;;;5.40;;
1370;SDS011;14306;49.942;11.570;2023-02-28T10:41:26;10.80;;;5.60;;
1370;SDS011;14306;49.942;11.570;2023-02-28T10:44:13;11.17;;;5.23;;
1370;SDS011;14306;49.942;11.570;2023-02-28T10:46:46;6.97;;;5.07;;
1370;SDS011;14306;49.942;11.570;2023-02-28T10:49:17;8.33;;;5.20;;
1370;SDS011;14306;49.942;11.570;2023-02-28T10:51:52;6.90;;;5.43;;
1370;SDS011;14306;49.942;11.570;2023-02-28T10:54:26;12.30;;;6.20;;
1370;SDS011;14306;49.942;11.570;2023-02-28T10:57:08;9.70;;;5.90;;
1370;SDS011;14306;49.942;11.570;2023-02-28T10:59:43;7.73;;;4.80;;
1370;SDS011;14306;49.942;11.570;2023-02-28T11:02:29;14.70;;;6.33;;
1370;SDS011;14306;49.942;11.570;2023-02-28T11:04:59;17.97;;;6.20;;
1370;SDS011;14306;49.942;11.570;2023-02-28T11:07:29;6.97;;;5.00;;
1370;SDS011;14306;49.942;11.570;2023-02-28T11:10:16;10.57;;;5.40;;
1370;SDS011;14306;49.942;11.570;2023-02-28T11:12:47;6.60;;;4.70;;
1370;SDS011;14306;49.942;11.570;2023-02-28T11:15:21;8.23;;;5.10;;
1370;SDS011;14306;49.942;11.570;2023-02-28T11:17:53;8.77;;;5.10;;
1370;SDS011;14306;49.942;11.570;2023-02-28T11:20:23;8.20;;;5.17;;
1370;SDS011;14306;49.942;11.570;2023-02-28T11:22:55;8.00;;;5.30;;
1370;SDS011;14306;49.942;11.570;2023-02-28T11:25:27;6.70;;;4.90;;
1370;SDS011;14306;49.942;11.570;2023-02-28T11:27:59;10.27;;;5.50;;
1370;SDS011;14306;49.942;11.570;2023-02-28T11:30:30;9.33;;;4.80;;
1370;SDS011;14306;49.942;11.570;2023-02-28T11:33:19;10.00;;;6.03;;
1370;SDS011;14306;49.942;11.570;2023-02-28T11:35:51;8.80;;;5.43;;
1370;SDS011;14306;49.942;11.570;2023-02-28T11:38:22;7.53;;;5.43;;
1370;SDS011;14306;49.942;11.570;2023-02-28T11:40:55;7.20;;;5.17;;
1370;SDS011;14306;49.942;11.570;2023-02-28T11:43:39;9.57;;;5.50;;
1370;SDS011;14306;49.942;11.570;2023-02-28T11:46:24;8.80;;;5.90;;
1370;SDS011;14306;49.942;11.570;2023-02-28T11:49:02;7.90;;;5.60;;
1370;SDS011;14306;49.942;11.570;2023-02-28T11:51:47;7.10;;;5.07;;
1370;SDS011;14306;49.942;11.570;2023-02-28T11:54:23;7.67;;;5.53;;
1370;SDS011;14306;49.942;11.570;2023-02-28T11:57:19;9.77;;;5.60;;
1370;SDS011;14306;49.942;11.570;2023-02-28T11:59:59;7.57;;;5.00;;
1370;SDS011;14306;49.942;11.570;2023-02-28T12:02:36;10.20;;;5.40;;
1370;SDS011;14306;49.942;11.570;2023-02-28T12:05:24;8.00;;;4.97;;
1370;SDS011;14306;49.942;11.570;2023-02-28T12:08:00;8.00;;;5.57;;
1370;SDS011;14306;49.942;11.570;2023-02-28T12:10:43;8.87;;;5.00;;
1370;SDS011;14306;49.942;11.570;2023-02-28T12:13:23;9.50;;;4.97;;
1370;SDS011;14306;49.942;11.570;2023-02-28T12:16:07;9.23;;;5.57;;
1370;SDS011;14306;49.942;11.570;2023-02-28T12:18:52;8.87;;;5.17;;
1370;SDS011;14306;49.942;11.570;2023-02-28T12:21:30;9.13;;;5.00;;
1370;SDS011;14306;49.942;11.570;2023-02-28T12:27:07;9.43;;;5.70;;
1370;SDS011;14306;49.942;11.570;2023-02-28T12:29:43;8.27;;;5.20;;
1370;SDS011;14306;49.942;11.570;2023-02-28T12:32:18;9.03;;;4.87;;
1370;SDS011;14306;49.942;11.570;2023-02-28T12:34:52;10.67;;;6.53;;
1370;SDS011;14306;49.942;11.570;2023-02-28T12:37:28;7.10;;;5.70;;
1370;SDS011;14306;49.942;11.570;2023-02-28T12:40:02;7.67;;;5.53;;
1370;SDS011;14306;49.942;11.570;2023-02-28T12:42:36;8.87;;;4.63;;
1370;SDS011;14306;49.942;11.570;2023-02-28T12:45:12;10.10;;;5.90;;
1370;SDS011;14306;49.942;11.570;2023-02-28T12:47:46;9.60;;;5.90;;
1370;SDS011;14306;49.942;11.570;2023-02-28T12:50:18;8.63;;;5.63;;
1370;SDS011;14306;49.942;11.570;2023-02-28T12:52:51;10.60;;;5.47;;
1370;SDS011;14306;49.942;11.570;2023-02-28T12:55:27;8.83;;;5.77;;
1370;SDS011;14306;49.942;11.570;2023-02-28T12:58:07;7.57;;;5.37;;
1370;SDS011;14306;49.942;11.570;2023-02-28T13:00:47;7.00;;;5.80;;
1370;SDS011;14306;49.942;11.570;2023-02-28T13:06:51;9.70;;;6.00;;
1370;SDS011;14306;49.942;11.570;2023-02-28T13:09:40;9.20;;;6.00;;
1370;SDS011;14306;49.942;11.570;2023-02-28T13:12:12;8.63;;;5.47;;
1370;SDS011;14306;49.942;11.570;2023-02-28T13:14:42;10.03;;;5.80;;
1370;SDS011;14306;49.942;11.570;2023-02-28T13:17:13;10.83;;;5.30;;
1370;SDS011;14306;49.942;11.570;2023-02-28T13:19:56;11.63;;;6.00;;
1370;SDS011;14306;49.942;11.570;2023-02-28T13:22:36;10.10;;;5.33;;
1370;SDS011;14306;49.942;11.570;2023-02-28T13:35:11;8.40;;;5.50;;
1370;SDS011;14306;49.942;11.570;2023-02-28T13:38:09;10.50;;;6.00;;
1370;SDS011;14306;49.942;11.570;2023-02-28T13:40:55;8.00;;;5.63;;
1370;SDS011;14306;49.942;11.570;2023-02-28T13:44:02;8.33;;;5.60;;
1370;SDS011;14306;49.942;11.570;2023-02-28T13:46:32;7.10;;;5.30;;
1370;SDS011;14306;49.942;11.570;2023-02-28T13:49:19;5.90;;;4.87;;
1370;SDS011;14306;49.942;11.570;2023-02-28T13:51:52;9.90;;;5.80;;
1370;SDS011;14306;49.942;11.570;2023-02-28T13:54:33;6.50;;;4.70;;
1370;SDS011;14306;49.942;11.570;2023-02-28T13:57:17;9.97;;;5.20;;
1370;SDS011;14306;49.942;11.570;2023-02-28T13:59:55;8.27;;;5.77;;
1370;SDS011;14306;49.942;11.570;2023-02-28T14:02:40;10.10;;;6.90;;
1370;SDS011;14306;49.942;11.570;2023-02-28T14:05:20;8.23;;;6.60;;
1370;SDS011;14306;49.942;11.570;2023-02-28T14:07:54;6.80;;;5.57;;
1370;SDS011;14306;49.942;11.570;2023-02-28T14:10:27;13.60;;;6.50;;
1370;SDS011;14306;49.942;11.570;2023-02-28T14:13:11;6.37;;;4.70;;
1370;SDS011;14306;49.942;11.570;2023-02-28T14:16:01;11.57;;;5.57;;
1370;SDS011;14306;49.942;11.570;2023-02-28T14:18:32;7.97;;;6.00;;
1370;SDS011;14306;49.942;11.570;2023-02-28T14:21:08;11.10;;;6.50;;
1370;SDS011;14306;49.942;11.570;2023-02-28T14:23:45;16.40;;;6.20;;
1370;SDS011;14306;49.942;11.570;2023-02-28T14:29:42;8.37;;;5.93;;
1370;SDS011;14306;49.942;11.570;2023-02-28T14:32:28;7.53;;;5.50;;
1370;SDS011;14306;49.942;11.570;2023-02-28T14:35:05;9.43;;;5.70;;
1370;SDS011;14306;49.942;11.570;2023-02-28T14:37:44;8.40;;;5.90;;
1370;SDS011;14306;49.942;11.570;2023-02-28T14:40:19;8.83;;;6.40;;
1370;SDS011;14306;49.942;11.570;2023-02-28T14:42:54;8.53;;;5.43;;
1370;SDS011;14306;49.942;11.570;2023-02-28T14:45:24;6.77;;;5.30;;
1370;SDS011;14306;49.942;11.570;2023-02-28T14:47:55;12.00;;;5.80;;
1370;SDS011;14306;49.942;11.570;2023-02-28T14:50:27;10.77;;;5.90;;
1370;SDS011;14306;49.942;11.570;2023-02-28T14:52:59;8.53;;;5.80;;
1370;SDS011;14306;49.942;11.570;2023-02-28T14:55:31;10.47;;;6.37;;
1370;SDS011;14306;49.942;11.570;2023-02-28T14:58:03;10.47;;;6.00;;
1370;SDS011;14306;49.942;11.570;2023-02-28T15:00:34;10.37;;;5.77;;
1370;SDS011;14306;49.942;11.570;2023-02-28T15:03:11;9.40;;;5.73;;
1370;SDS011;14306;49.942;11.570;2023-02-28T15:05:52;8.27;;;6.03;;
1370;SDS011;14306;49.942;11.570;2023-02-28T15:08:23;10.00;;;6.07;;
1370;SDS011;14306;49.942;11.570;2023-02-28T15:10:57;10.03;;;6.80;;
1370;SDS011;14306;49.942;11.570;2023-02-28T15:13:31;8.53;;;6.00;;
1370;SDS011;14306;49.942;11.570;2023-02-28T15:16:05;10.73;;;7.10;;
1370;SDS011;14306;49.942;11.570;2023-02-28T15:18:43;11.03;;;6.57;;
1370;SDS011;14306;49.942;11.570;2023-02-28T15:21:15;8.80;;;6.10;;
1370;SDS011;14306;49.942;11.570;2023-02-28T15:23:46;10.60;;;6.50;;
1370;SDS011;14306;49.942;11.570;2023-02-28T15:26:20;10.63;;;6.27;;
1370;SDS011;14306;49.942;11.570;2023-02-28T15:28:57;8.60;;;6.20;;
1370;SDS011;14306;49.942;11.570;2023-02-28T15:31:28;12.37;;;7.27;;
1370;SDS011;14306;49.942;11.570;2023-02-28T15:34:20;11.37;;;7.30;;
1370;SDS011;14306;49.942;11.570;2023-02-28T15:36:53;12.00;;;8.33;;
1370;SDS011;14306;49.942;11.570;2023-02-28T15:39:23;10.67;;;7.03;;
1370;SDS011;14306;49.942;11.570;2023-02-28T15:44:46;9.97;;;6.43;;